Time;durP1;ratioP1;P1;durP2;ratioP2;P2;SDS_P1;SDS_P2;PMS_P1;PMS_P2;Temp;Humidity;BMP_temperature;BMP_pressure;BME280_temperature;BME280_humidity;BME280_pressure;Samples;Min_cycle;Max_cycle;Signal;HPM_P1;HPM_P2
2021/03/17 00:00:33;;;;;;;1.80;0.20;;;6.00;99.90;;;;;;5083502;28;20495;-62
2021/03/17 00:02:59;;;;;;;1.90;0.40;;;6.10;99.90;;;;;;5069099;28;20538;-62
2021/03/17 00:05:29;;;;;;;1.90;0.40;;;6.10;99.90;;;;;;5078380;28;20675;-62
2021/03/17 00:07:55;;;;;;;2.40;1.33;;;6.10;99.90;;;;;;5069588;28;20678;-61
2021/03/17 00:10:25;;;;;;;5.00;2.83;;;6.10;99.90;;;;;;5072886;28;20434;-61
2021/03/17 00:12:57;;;;;;;1.80;0.20;;;6.10;99.90;;;;;;5072555;28;20451;-62
2021/03/17 00:15:28;;;;;;;3.70;2.00;;;6.10;99.90;;;;;;5073810;28;20485;-61
2021/03/17 00:17:54;;;;;;;3.60;1.17;;;6.10;99.90;;;;;;5048659;28;20438;-62
2021/03/17 00:20:21;;;;;;;1.80;0.20;;;6.10;99.90;;;;;;5074403;28;20525;-62
2021/03/17 00:22:47;;;;;;;2.20;0.80;;;6.10;99.90;;;;;;5075135;28;20454;-62
2021/03/17 00:25:13;;;;;;;2.83;0.50;;;6.10;99.90;;;;;;5070796;28;20463;-61
2021/03/17 00:27:39;;;;;;;2.73;1.17;;;6.00;99.90;;;;;;5074635;28;20188;-62
2021/03/17 00:30:06;;;;;;;2.43;0.57;;;6.00;99.90;;;;;;5081354;28;20434;-61
2021/03/17 00:32:32;;;;;;;2.20;0.83;;;6.00;99.90;;;;;;5076628;28;20193;-61
2021/03/17 00:34:58;;;;;;;1.90;0.50;;;6.00;99.90;;;;;;5083279;28;20566;-61
2021/03/17 00:37:23;;;;;;;2.10;0.87;;;6.00;99.90;;;;;;5077187;28;20179;-62
2021/03/17 00:39:50;;;;;;;1.80;0.20;;;6.00;99.90;;;;;;5073402;28;20247;-61
2021/03/17 00:42:15;;;;;;;3.83;2.30;;;6.00;99.90;;;;;;5088968;28;20473;-62
2021/03/17 00:44:41;;;;;;;3.00;1.33;;;6.10;99.90;;;;;;5083383;28;20458;-62
2021/03/17 00:47:06;;;;;;;3.13;2.27;;;6.10;99.90;;;;;;5080105;28;20187;-61
2021/03/17 00:49:32;;;;;;;5.23;2.63;;;6.00;99.90;;;;;;5080017;28;20208;-61
2021/03/17 00:51:58;;;;;;;2.10;1.00;;;5.90;99.90;;;;;;5077203;28;20200;-62
2021/03/17 00:54:23;;;;;;;1.80;0.20;;;5.90;99.90;;;;;;5078201;28;20240;-61
2021/03/17 00:56:49;;;;;;;1.80;0.20;;;5.90;99.90;;;;;;5077569;28;20270;-61
2021/03/17 00:59:14;;;;;;;1.80;0.30;;;5.90;99.90;;;;;;5074933;28;20184;-61
2021/03/17 01:01:40;;;;;;;2.00;0.40;;;5.90;99.90;;;;;;5075509;28;20220;-62
2021/03/17 01:04:06;;;;;;;2.00;0.50;;;6.00;99.90;;;;;;5079965;28;20601;-62
2021/03/17 01:06:31;;;;;;;1.83;0.27;;;6.00;99.90;;;;;;5055689;28;20192;-62
2021/03/17 01:08:57;;;;;;;2.77;1.37;;;5.90;99.90;;;;;;5079018;28;20445;-62
2021/03/17 01:11:22;;;;;;;1.90;0.30;;;5.90;99.90;;;;;;5077261;28;20188;-62
2021/03/17 01:13:48;;;;;;;1.90;0.40;;;5.90;99.90;;;;;;5072648;28;20257;-62
2021/03/17 01:16:14;;;;;;;1.80;0.20;;;6.00;99.90;;;;;;5077620;28;20219;-62
2021/03/17 01:18:39;;;;;;;1.93;0.20;;;5.90;99.90;;;;;;5075615;28;20191;-61
2021/03/17 01:21:05;;;;;;;2.83;1.83;;;6.00;99.90;;;;;;5085396;28;20215;-62
2021/03/17 01:23:30;;;;;;;4.70;2.83;;;5.90;99.90;;;;;;5089600;28;20243;-62
2021/03/17 01:25:56;;;;;;;1.80;0.20;;;5.80;99.90;;;;;;5076954;28;20217;-62
2021/03/17 01:28:21;;;;;;;1.80;0.20;;;5.70;99.90;;;;;;5086033;28;20181;-62
2021/03/17 01:30:50;;;;;;;1.80;0.20;;;5.80;99.90;;;;;;5073972;28;20188;-61
2021/03/17 01:33:17;;;;;;;1.80;0.20;;;5.80;99.90;;;;;;5068745;28;20209;-62
2021/03/17 01:35:44;;;;;;;1.90;0.40;;;5.90;99.90;;;;;;5081005;28;20193;-61
2021/03/17 01:38:10;;;;;;;1.87;0.30;;;5.90;99.90;;;;;;5077238;28;20239;-62
2021/03/17 01:40:38;;;;;;;1.80;0.20;;;5.90;99.90;;;;;;5069039;28;20792;-62
2021/03/17 01:43:04;;;;;;;1.80;0.20;;;5.90;99.90;;;;;;5067074;28;20485;-62
2021/03/17 01:45:30;;;;;;;1.90;0.40;;;6.00;99.90;;;;;;5062643;28;20548;-62
2021/03/17 01:47:56;;;;;;;2.20;0.93;;;6.00;99.90;;;;;;5071094;28;20188;-62
2021/03/17 01:50:27;;;;;;;2.10;0.77;;;6.00;99.90;;;;;;5081756;28;20442;-62
2021/03/17 01:52:54;;;;;;;3.23;1.57;;;5.90;99.90;;;;;;5072812;28;20518;-62
2021/03/17 01:55:21;;;;;;;3.00;1.67;;;5.80;99.90;;;;;;5067275;28;20802;-62
2021/03/17 01:57:47;;;;;;;1.90;0.40;;;5.80;99.90;;;;;;5072063;28;20189;-61
2021/03/17 02:00:16;;;;;;;3.08;2.67;;;5.80;99.90;;;;;;5073407;28;20679;-61
2021/03/17 02:02:51;;;;;;;1.80;0.20;;;5.70;99.90;;;;;;5071534;28;20714;-62
2021/03/17 02:05:22;;;;;;;1.80;0.20;;;5.70;99.90;;;;;;5079082;28;20189;-62
2021/03/17 02:07:47;;;;;;;5.43;2.78;;;5.70;99.90;;;;;;5073356;28;20632;-62
2021/03/17 02:10:16;;;;;;;2.10;0.67;;;5.60;99.90;;;;;;5078737;28;20196;-62
2021/03/17 02:12:47;;;;;;;4.63;0.73;;;5.60;99.90;;;;;;5077047;28;20185;-62
2021/03/17 02:15:36;;;;;;;2.20;0.75;;;5.50;99.90;;;;;;5065145;28;20548;-62
2021/03/17 02:18:07;;;;;;;1.80;0.20;;;5.50;99.90;;;;;;5065184;28;20648;-62
2021/03/17 02:20:54;;;;;;;1.80;0.20;;;5.50;99.90;;;;;;5079488;28;20216;-62
2021/03/17 02:23:25;;;;;;;3.30;1.70;;;5.50;99.90;;;;;;5078201;28;20243;-62
2021/03/17 02:26:04;;;;;;;4.20;3.17;;;5.60;99.90;;;;;;5068911;28;20180;-64
2021/03/17 02:28:47;;;;;;;2.00;0.65;;;5.50;99.90;;;;;;5070221;28;20181;-62
2021/03/17 02:31:34;;;;;;;2.00;0.63;;;5.50;99.90;;;;;;5078517;28;20180;-62
2021/03/17 02:34:12;;;;;;;3.00;2.47;;;5.60;99.90;;;;;;5072350;28;20286;-62
2021/03/17 02:36:46;;;;;;;1.90;0.30;;;5.60;99.90;;;;;;5071689;28;20241;-62
2021/03/17 02:39:24;;;;;;;1.90;0.50;;;5.60;99.90;;;;;;5085150;28;21341;-62
2021/03/17 02:42:09;;;;;;;1.80;0.20;;;5.70;99.90;;;;;;5069420;28;20667;-62
2021/03/17 02:44:43;;;;;;;1.80;0.20;;;5.70;99.90;;;;;;5066904;28;20287;-62
2021/03/17 02:47:09;;;;;;;1.80;0.20;;;5.70;99.90;;;;;;5057993;28;20271;-62
2021/03/17 02:49:38;;;;;;;3.07;2.27;;;5.70;99.90;;;;;;5071404;28;20600;-62
2021/03/17 02:52:05;;;;;;;14.45;5.10;;;5.70;99.90;;;;;;5075249;28;20180;-61
2021/03/17 02:54:33;;;;;;;1.80;0.20;;;5.60;99.90;;;;;;5105775;28;20208;-62
2021/03/17 02:57:05;;;;;;;1.80;0.30;;;5.60;99.90;;;;;;5074957;28;20196;-61
2021/03/17 02:59:31;;;;;;;1.90;0.45;;;5.60;99.90;;;;;;5063609;28;20187;-62
2021/03/17 03:01:59;;;;;;;1.80;0.20;;;5.60;99.90;;;;;;5057103;28;20183;-62
2021/03/17 03:04:27;;;;;;;2.03;0.55;;;5.60;99.90;;;;;;5068886;28;20443;-62
2021/03/17 03:06:55;;;;;;;1.80;0.20;;;5.60;99.90;;;;;;5064316;28;20701;-62
2021/03/17 03:09:24;;;;;;;2.97;1.33;;;5.60;99.90;;;;;;5068087;28;20605;-62
2021/03/17 03:11:52;;;;;;;1.80;0.20;;;5.60;99.90;;;;;;5072808;28;20643;-62
2021/03/17 03:14:21;;;;;;;1.90;0.35;;;5.50;99.90;;;;;;5072302;28;20295;-62
2021/03/17 03:16:48;;;;;;;1.80;0.20;;;5.60;99.90;;;;;;5066962;28;20219;-61
2021/03/17 03:19:15;;;;;;;1.80;0.30;;;5.60;99.90;;;;;;5066876;28;20172;-61
2021/03/17 03:21:41;;;;;;;2.15;1.00;;;5.70;99.90;;;;;;5072115;28;20212;-62
2021/03/17 03:24:08;;;;;;;2.30;0.90;;;5.70;99.90;;;;;;5073296;28;20231;-62
2021/03/17 03:26:34;;;;;;;4.05;1.25;;;5.60;99.90;;;;;;5066447;28;20189;-62
2021/03/17 03:29:03;;;;;;;1.80;0.20;;;5.50;99.90;;;;;;5067690;28;20188;-61
2021/03/17 03:31:29;;;;;;;1.80;0.20;;;5.60;99.90;;;;;;5078512;28;20184;-62
2021/03/17 03:33:54;;;;;;;5.90;1.40;;;5.70;99.90;;;;;;5063852;28;20205;-62
2021/03/17 03:36:21;;;;;;;1.80;0.20;;;5.80;99.90;;;;;;5072742;28;20185;-62
2021/03/17 03:38:46;;;;;;;1.80;0.20;;;5.80;99.90;;;;;;5068727;28;20192;-62
2021/03/17 03:41:12;;;;;;;1.80;0.20;;;5.80;99.90;;;;;;5073063;28;20574;-62
2021/03/17 03:43:37;;;;;;;1.80;0.20;;;5.90;99.90;;;;;;5076911;28;20208;-62
2021/03/17 03:46:03;;;;;;;1.83;0.20;;;5.90;99.90;;;;;;5068117;28;20184;-62
2021/03/17 03:48:29;;;;;;;1.80;0.20;;;5.90;99.90;;;;;;5068042;28;20189;-62
2021/03/17 03:50:55;;;;;;;1.80;0.20;;;6.00;99.90;;;;;;5072611;28;20196;-61
2021/03/17 03:53:47;;;;;;;1.80;0.20;;;6.00;99.90;;;;;;5080937;28;20203;-62
2021/03/17 03:56:27;;;;;;;1.80;0.20;;;6.00;99.90;;;;;;5069024;28;20596;-62
2021/03/17 03:58:57;;;;;;;1.80;0.20;;;5.90;99.90;;;;;;5081073;28;20189;-62
2021/03/17 04:01:26;;;;;;;1.90;0.30;;;5.90;99.90;;;;;;5070593;28;20552;-62
2021/03/17 04:04:01;;;;;;;2.47;1.42;;;5.90;99.90;;;;;;5071942;28;20533;-62
2021/03/17 04:06:29;;;;;;;1.80;0.20;;;5.80;99.90;;;;;;5075075;28;20282;-62
2021/03/17 04:08:59;;;;;;;1.80;0.20;;;5.80;99.90;;;;;;5075469;28;20197;-62
2021/03/17 04:11:25;;;;;;;1.80;0.20;;;5.80;99.90;;;;;;5071163;28;20193;-61
2021/03/17 04:13:51;;;;;;;3.67;1.85;;;5.80;99.90;;;;;;5075474;28;20695;-62
2021/03/17 04:16:21;;;;;;;1.90;0.20;;;5.70;99.90;;;;;;5084149;28;20247;-62
2021/03/17 04:18:48;;;;;;;1.80;0.20;;;5.60;99.90;;;;;;5076325;28;20451;-62
2021/03/17 04:21:18;;;;;;;1.80;0.20;;;5.60;99.90;;;;;;5081123;28;20207;-63
2021/03/17 04:23:46;;;;;;;1.80;0.20;;;5.60;99.90;;;;;;5082715;28;20207;-62
2021/03/17 04:26:13;;;;;;;2.40;1.63;;;5.70;99.90;;;;;;5085231;28;20214;-62
2021/03/17 04:28:42;;;;;;;1.90;0.20;;;5.70;99.90;;;;;;5082762;28;20480;-62
2021/03/17 04:31:09;;;;;;;1.80;0.20;;;5.80;99.90;;;;;;5091789;28;20184;-62
2021/03/17 04:33:37;;;;;;;5.20;2.47;;;5.90;99.90;;;;;;5084925;28;20205;-63
2021/03/17 04:36:03;;;;;;;2.55;1.30;;;5.70;99.90;;;;;;5086807;28;20263;-62
2021/03/17 04:38:29;;;;;;;30.35;1.95;;;5.60;99.90;;;;;;5087375;28;20207;-63
2021/03/17 04:40:57;;;;;;;1.80;0.20;;;5.60;99.90;;;;;;5081305;28;21306;-61
2021/03/17 04:43:23;;;;;;;1.80;0.20;;;5.60;99.90;;;;;;5078808;28;20201;-63
2021/03/17 04:45:50;;;;;;;1.80;0.20;;;5.70;99.90;;;;;;5079620;28;20663;-62
2021/03/17 04:48:17;;;;;;;2.85;1.33;;;5.70;99.90;;;;;;5080732;28;20477;-62
2021/03/17 04:50:45;;;;;;;1.80;0.20;;;5.70;99.90;;;;;;5084313;28;20184;-61
2021/03/17 04:53:11;;;;;;;1.85;0.20;;;5.60;99.90;;;;;;5078321;28;20180;-61
2021/03/17 04:55:38;;;;;;;1.80;0.20;;;5.70;99.90;;;;;;5081226;28;20184;-61
2021/03/17 04:58:09;;;;;;;1.85;0.35;;;5.70;99.90;;;;;;5082298;28;20188;-62
2021/03/17 05:00:36;;;;;;;2.17;0.85;;;5.70;99.90;;;;;;5088552;28;20208;-64
2021/03/17 05:03:04;;;;;;;2.03;0.68;;;5.70;99.90;;;;;;5089499;28;20193;-61
2021/03/17 05:05:31;;;;;;;1.90;0.40;;;5.60;99.90;;;;;;5095110;28;20199;-63
2021/03/17 05:07:57;;;;;;;1.90;0.20;;;5.50;99.90;;;;;;5082775;28;20185;-61
2021/03/17 05:10:26;;;;;;;1.80;0.30;;;5.50;99.90;;;;;;5075856;28;20279;-62
2021/03/17 05:12:52;;;;;;;1.80;0.20;;;5.50;99.90;;;;;;5060872;28;20195;-61
2021/03/17 05:15:19;;;;;;;1.80;0.20;;;5.40;99.90;;;;;;5071122;28;20207;-62
2021/03/17 05:17:47;;;;;;;1.80;0.20;;;5.50;99.90;;;;;;5083068;28;20267;-62
2021/03/17 05:20:18;;;;;;;1.80;0.20;;;5.50;99.90;;;;;;5075388;28;20209;-61
2021/03/17 05:22:46;;;;;;;13.90;6.97;;;5.50;99.90;;;;;;5073207;28;20184;-61
2021/03/17 05:25:13;;;;;;;1.90;0.22;;;5.40;99.90;;;;;;5078148;28;20218;-61
2021/03/17 05:27:39;;;;;;;1.90;0.20;;;5.40;99.90;;;;;;5066502;28;20297;-62
2021/03/17 05:30:08;;;;;;;1.80;0.20;;;5.50;99.90;;;;;;5074182;28;20190;-61
2021/03/17 05:32:34;;;;;;;1.80;0.20;;;5.50;99.90;;;;;;5074107;28;20189;-61
2021/03/17 05:35:03;;;;;;;1.80;0.20;;;5.40;99.90;;;;;;5075379;28;20206;-61
2021/03/17 05:37:29;;;;;;;1.85;0.20;;;5.30;99.90;;;;;;5071557;28;20195;-61
2021/03/17 05:39:56;;;;;;;1.80;0.30;;;5.40;99.90;;;;;;5081206;28;20201;-61
2021/03/17 05:42:22;;;;;;;1.80;0.20;;;5.40;99.90;;;;;;5065592;28;20544;-61
2021/03/17 05:44:49;;;;;;;1.80;0.20;;;5.40;99.90;;;;;;5073521;28;20287;-61
2021/03/17 05:47:16;;;;;;;1.80;0.20;;;5.50;99.90;;;;;;5066305;28;20184;-61
2021/03/17 05:49:43;;;;;;;1.80;0.20;;;5.50;99.90;;;;;;5067806;28;20573;-61
2021/03/17 05:52:09;;;;;;;3.53;1.40;;;5.50;99.90;;;;;;5076787;28;20188;-61
2021/03/17 05:54:35;;;;;;;1.80;0.20;;;5.40;99.90;;;;;;5081950;28;20276;-61
2021/03/17 05:57:02;;;;;;;2.00;0.30;;;5.30;99.90;;;;;;5070804;28;20593;-63
2021/03/17 05:59:30;;;;;;;1.80;0.20;;;5.40;99.90;;;;;;5075241;28;20180;-62
2021/03/17 06:01:56;;;;;;;1.80;0.20;;;5.30;99.90;;;;;;5071602;28;20235;-62
2021/03/17 06:04:25;;;;;;;1.88;0.20;;;5.40;99.90;;;;;;5062569;28;20208;-62
2021/03/17 06:06:52;;;;;;;1.80;0.20;;;5.40;99.90;;;;;;5072908;28;20191;-62
2021/03/17 06:09:22;;;;;;;1.80;0.20;;;5.40;99.90;;;;;;5071659;28;20527;-62
2021/03/17 06:11:50;;;;;;;1.80;0.20;;;5.40;99.90;;;;;;5072612;28;20181;-63
2021/03/17 06:14:19;;;;;;;1.80;0.20;;;5.40;99.90;;;;;;5063819;28;20227;-62
2021/03/17 06:16:46;;;;;;;1.80;0.20;;;5.40;99.90;;;;;;5051022;28;20189;-62
2021/03/17 06:19:14;;;;;;;1.88;0.30;;;5.40;99.90;;;;;;5073488;28;20188;-62
2021/03/17 06:21:40;;;;;;;5.90;3.08;;;5.40;99.90;;;;;;5078018;28;20213;-62
2021/03/17 06:24:07;;;;;;;2.17;1.17;;;5.30;99.90;;;;;;5077891;28;20211;-62
2021/03/17 06:26:37;;;;;;;5.97;4.30;;;5.30;99.90;;;;;;5070961;28;20186;-62
2021/03/17 06:29:03;;;;;;;5.40;2.40;;;5.20;99.90;;;;;;5076643;28;20544;-62
2021/03/17 06:31:30;;;;;;;2.23;1.03;;;5.20;99.90;;;;;;5069281;28;20188;-62
2021/03/17 06:33:55;;;;;;;1.83;0.30;;;5.20;99.90;;;;;;5069069;28;20670;-62
2021/03/17 06:36:23;;;;;;;5.70;3.20;;;5.20;99.90;;;;;;5079821;28;20207;-62
2021/03/17 06:38:50;;;;;;;3.20;1.92;;;5.20;99.90;;;;;;5074831;28;20185;-62
2021/03/17 06:41:17;;;;;;;1.80;0.20;;;5.20;99.90;;;;;;5070254;28;20216;-62
2021/03/17 06:43:44;;;;;;;1.80;0.20;;;5.20;99.90;;;;;;5053851;28;20250;-62
2021/03/17 06:46:12;;;;;;;8.32;3.47;;;5.20;99.90;;;;;;5068685;28;20197;-62
2021/03/17 06:48:39;;;;;;;4.63;4.22;;;5.30;99.90;;;;;;5075798;28;20180;-62
2021/03/17 06:51:10;;;;;;;2.13;0.85;;;5.30;99.90;;;;;;5074580;28;20179;-62
2021/03/17 06:53:41;;;;;;;1.80;0.20;;;5.30;99.90;;;;;;5064268;28;20212;-61
2021/03/17 06:56:26;;;;;;;2.00;0.70;;;5.40;99.90;;;;;;5060633;28;20176;-62
2021/03/17 06:58:54;;;;;;;1.80;0.20;;;5.40;99.90;;;;;;5072454;28;20579;-61
2021/03/17 07:01:40;;;;;;;4.97;4.00;;;5.40;99.90;;;;;;5066161;28;20251;-62
2021/03/17 07:04:11;;;;;;;1.80;0.20;;;5.50;99.90;;;;;;5062641;28;20226;-62
2021/03/17 07:06:38;;;;;;;7.78;5.35;;;5.40;99.90;;;;;;5071914;28;20539;-62
2021/03/17 07:09:17;;;;;;;1.90;0.43;;;5.40;99.90;;;;;;5061334;28;20172;-61
2021/03/17 07:11:43;;;;;;;3.05;0.82;;;5.40;99.90;;;;;;5063774;28;20188;-62
2021/03/17 07:14:09;;;;;;;7.07;4.55;;;5.40;99.90;;;;;;5081604;28;20213;-62
2021/03/17 07:16:37;;;;;;;8.60;4.53;;;5.40;99.90;;;;;;5069121;28;20609;-62
2021/03/17 07:19:04;;;;;;;2.40;1.15;;;5.40;99.90;;;;;;5064461;28;20185;-62
2021/03/17 07:21:32;;;;;;;2.13;1.13;;;5.40;99.90;;;;;;5073896;28;20223;-62
2021/03/17 07:23:58;;;;;;;1.80;0.25;;;5.40;99.90;;;;;;5070472;28;20563;-61
2021/03/17 07:26:28;;;;;;;2.10;0.60;;;5.50;99.90;;;;;;5071672;28;20184;-61
2021/03/17 07:28:55;;;;;;;1.80;0.20;;;5.60;99.90;;;;;;5076384;28;20196;-61
2021/03/17 07:31:23;;;;;;;1.80;0.20;;;5.70;99.90;;;;;;5066588;28;20180;-62
2021/03/17 07:33:50;;;;;;;2.78;1.13;;;5.80;99.90;;;;;;5067175;28;20212;-61
2021/03/17 07:36:49;;;;;;;4.20;1.63;;;5.80;99.90;;;;;;5072975;28;20535;-61
2021/03/17 07:39:16;;;;;;;2.25;0.95;;;5.80;99.90;;;;;;5070632;28;20442;-64
2021/03/17 07:41:42;;;;;;;8.02;3.88;;;5.80;99.90;;;;;;5066663;28;20611;-61
2021/03/17 07:44:09;;;;;;;10.00;3.33;;;5.70;99.90;;;;;;5072920;28;20196;-63
2021/03/17 07:46:37;;;;;;;4.82;3.05;;;5.50;99.90;;;;;;5069281;28;20196;-61
2021/03/17 07:49:03;;;;;;;7.47;4.20;;;5.50;99.90;;;;;;5070128;28;20254;-60
2021/03/17 07:51:32;;;;;;;6.60;3.23;;;5.50;99.90;;;;;;5076282;28;20206;-61
2021/03/17 07:53:59;;;;;;;1.83;0.20;;;5.50;99.90;;;;;;5070291;28;20464;-62
2021/03/17 07:56:25;;;;;;;1.80;0.20;;;5.40;99.90;;;;;;5076550;28;20195;-63
2021/03/17 07:58:52;;;;;;;1.80;0.20;;;5.40;99.90;;;;;;5081681;28;20559;-62
2021/03/17 08:01:19;;;;;;;1.80;0.20;;;5.40;99.90;;;;;;5073421;28;20567;-63
2021/03/17 08:03:47;;;;;;;1.80;0.20;;;5.40;99.90;;;;;;5096526;28;20222;-62
2021/03/17 08:06:20;;;;;;;1.80;0.20;;;5.50;99.90;;;;;;5097003;28;20185;-63
2021/03/17 08:08:46;;;;;;;2.55;1.02;;;5.50;99.90;;;;;;5094565;28;20248;-63
2021/03/17 08:11:19;;;;;;;2.30;1.05;;;5.50;99.90;;;;;;5098696;28;21275;-63
2021/03/17 08:13:48;;;;;;;1.80;0.20;;;5.50;99.90;;;;;;5099772;28;20259;-62
2021/03/17 08:16:19;;;;;;;1.80;0.20;;;5.50;99.90;;;;;;5093631;28;20169;-63
2021/03/17 08:18:46;;;;;;;3.45;1.70;;;5.50;99.90;;;;;;5091113;28;20193;-61
2021/03/17 08:21:12;;;;;;;1.80;0.20;;;5.60;99.90;;;;;;5094494;28;20207;-62
2021/03/17 08:23:44;;;;;;;2.45;1.15;;;5.60;99.90;;;;;;5085394;28;20622;-61
2021/03/17 08:26:11;;;;;;;5.95;1.25;;;5.70;99.90;;;;;;5087074;28;20184;-61
2021/03/17 08:28:56;;;;;;;1.80;0.20;;;5.70;99.90;;;;;;5084810;28;20180;-61
2021/03/17 08:31:38;;;;;;;8.80;3.47;;;5.60;99.90;;;;;;5081402;28;20180;-64
2021/03/17 08:34:18;;;;;;;1.80;0.20;;;5.60;99.90;;;;;;5080439;28;20208;-61
2021/03/17 08:36:49;;;;;;;16.90;3.95;;;5.70;99.90;;;;;;5083327;28;20181;-61
2021/03/17 08:39:39;;;;;;;3.38;1.85;;;5.70;99.90;;;;;;5071646;28;20272;-61
2021/03/17 08:42:27;;;;;;;3.85;1.88;;;5.70;99.90;;;;;;5069973;28;20234;-61
2021/03/17 08:44:55;;;;;;;2.80;1.48;;;5.70;99.90;;;;;;5080667;28;20208;-62
2021/03/17 08:47:29;;;;;;;2.72;1.38;;;5.70;99.90;;;;;;5084111;28;20188;-61
2021/03/17 08:50:16;;;;;;;2.50;0.77;;;5.80;99.90;;;;;;5093592;28;20259;-62
2021/03/17 08:52:46;;;;;;;4.22;1.77;;;5.80;99.90;;;;;;5090874;28;20180;-62
2021/03/17 08:55:14;;;;;;;1.92;0.52;;;5.80;99.90;;;;;;5093420;28;20197;-61
2021/03/17 08:57:59;;;;;;;9.10;3.50;;;5.90;99.90;;;;;;5092544;28;20176;-61
2021/03/17 09:00:49;;;;;;;3.00;2.08;;;5.80;99.90;;;;;;5090308;28;20201;-62
2021/03/17 09:03:36;;;;;;;1.90;0.50;;;5.80;99.90;;;;;;5098620;28;20252;-61
2021/03/17 09:06:09;;;;;;;3.90;1.77;;;5.90;99.90;;;;;;5092643;28;20186;-61
2021/03/17 09:08:55;;;;;;;1.90;0.20;;;5.90;99.90;;;;;;5082200;28;20251;-61
2021/03/17 09:11:29;;;;;;;4.10;1.98;;;6.10;99.90;;;;;;5074896;28;20271;-60
2021/03/17 09:13:56;;;;;;;5.10;2.95;;;6.20;99.90;;;;;;5079415;28;20203;-61
2021/03/17 09:16:21;;;;;;;6.10;3.33;;;6.30;99.90;;;;;;5071525;28;20288;-61
2021/03/17 09:19:08;;;;;;;5.93;2.43;;;6.30;99.90;;;;;;5081858;28;20809;-60
2021/03/17 09:21:42;;;;;;;3.75;1.15;;;6.30;99.90;;;;;;5074264;28;20863;-60
2021/03/17 09:24:31;;;;;;;1.88;0.43;;;6.20;99.90;;;;;;5072251;28;20210;-61
2021/03/17 09:27:07;;;;;;;7.77;4.50;;;6.20;99.90;;;;;;5072481;28;20199;-60
2021/03/17 09:29:35;;;;;;;1.80;0.20;;;6.20;99.90;;;;;;5075417;28;20434;-60
2021/03/17 09:32:02;;;;;;;9.88;5.65;;;6.30;99.90;;;;;;5073870;28;20450;-61
2021/03/17 09:34:29;;;;;;;11.93;6.83;;;6.30;99.90;;;;;;5074125;28;20219;-60
2021/03/17 09:37:02;;;;;;;5.30;2.43;;;6.30;99.90;;;;;;5083071;28;20453;-60
2021/03/17 09:39:28;;;;;;;9.20;5.65;;;6.20;99.90;;;;;;5075913;28;20437;-62
2021/03/17 09:41:53;;;;;;;10.93;7.60;;;6.00;99.90;;;;;;5072259;28;20258;-60
2021/03/17 09:44:21;;;;;;;7.70;4.30;;;5.90;99.90;;;;;;5080881;28;20302;-60
2021/03/17 09:46:51;;;;;;;6.03;3.65;;;5.90;99.90;;;;;;5064439;28;20605;-60
2021/03/17 09:49:25;;;;;;;11.13;5.57;;;5.90;99.90;;;;;;5074915;28;20568;-60
2021/03/17 09:51:56;;;;;;;1.80;0.20;;;6.00;99.90;;;;;;5077656;28;20195;-60
2021/03/17 09:54:27;;;;;;;2.05;0.28;;;6.20;99.90;;;;;;5074539;28;20260;-60
2021/03/17 09:56:57;;;;;;;2.80;1.40;;;6.30;99.90;;;;;;5075474;28;20188;-60
2021/03/17 09:59:39;;;;;;;3.58;1.65;;;6.30;99.90;;;;;;5080464;28;20191;-60
2021/03/17 10:02:24;;;;;;;8.55;3.38;;;6.40;99.90;;;;;;5070815;28;20230;-60
2021/03/17 10:04:52;;;;;;;7.22;2.95;;;6.30;99.90;;;;;;5070558;28;20607;-60
2021/03/17 10:07:20;;;;;;;2.20;0.67;;;6.40;99.90;;;;;;5071919;28;20218;-60
2021/03/17 10:09:47;;;;;;;5.95;3.95;;;6.50;99.90;;;;;;5071043;28;20464;-60
2021/03/17 10:12:17;;;;;;;5.38;2.65;;;6.40;99.90;;;;;;5071729;28;20177;-60
2021/03/17 10:14:46;;;;;;;4.50;2.78;;;6.50;99.90;;;;;;5073470;28;20197;-60
2021/03/17 10:17:13;;;;;;;1.80;0.20;;;6.40;99.90;;;;;;5072568;28;20184;-60
2021/03/17 10:19:40;;;;;;;6.40;2.37;;;6.50;99.90;;;;;;5072299;28;20544;-60
2021/03/17 10:22:06;;;;;;;1.80;0.20;;;6.50;99.90;;;;;;5070726;28;20457;-60
2021/03/17 10:24:44;;;;;;;1.80;0.20;;;6.40;99.90;;;;;;5065810;28;20208;-60
2021/03/17 10:27:12;;;;;;;5.22;2.10;;;6.40;99.90;;;;;;5069860;28;20930;-59
2021/03/17 10:29:39;;;;;;;2.93;0.93;;;6.20;99.90;;;;;;5077302;28;22566;-59
2021/03/17 10:32:09;;;;;;;2.75;1.05;;;6.00;99.90;;;;;;5068293;28;20606;-60
2021/03/17 10:34:36;;;;;;;2.55;0.85;;;5.70;99.90;;;;;;5072554;28;20208;-60
2021/03/17 10:37:02;;;;;;;1.90;0.30;;;5.70;99.90;;;;;;5071437;28;20625;-60
2021/03/17 10:39:34;;;;;;;4.90;2.70;;;5.70;99.90;;;;;;5069851;28;20185;-60
2021/03/17 10:42:00;;;;;;;1.80;0.20;;;5.50;99.90;;;;;;5072037;28;20751;-60
2021/03/17 10:44:31;;;;;;;1.90;0.50;;;5.60;99.90;;;;;;5072946;28;20204;-62
2021/03/17 10:47:02;;;;;;;1.80;0.20;;;5.80;99.90;;;;;;5069189;28;20261;-61
2021/03/17 10:49:32;;;;;;;1.80;0.20;;;6.00;99.90;;;;;;5074062;28;20184;-61
2021/03/17 10:51:58;;;;;;;1.80;0.20;;;6.10;99.90;;;;;;5071231;28;20188;-60
2021/03/17 10:54:29;;;;;;;3.75;1.20;;;6.20;99.90;;;;;;5071905;28;20477;-62
2021/03/17 10:56:55;;;;;;;1.88;0.32;;;6.20;99.90;;;;;;5082479;28;20180;-60
2021/03/17 10:59:29;;;;;;;3.20;1.70;;;6.10;99.90;;;;;;5077857;28;20237;-60
2021/03/17 11:02:20;;;;;;;1.90;0.38;;;6.20;99.90;;;;;;5066740;28;20470;-60
2021/03/17 11:05:07;;;;;;;1.90;0.20;;;6.30;99.90;;;;;;5077227;28;20235;-60
2021/03/17 11:07:52;;;;;;;5.43;3.87;;;6.60;99.90;;;;;;5071520;28;20951;-60
2021/03/17 11:10:28;;;;;;;1.80;0.20;;;6.50;99.90;;;;;;5065855;28;20539;-60
2021/03/17 11:12:54;;;;;;;2.43;0.87;;;6.50;99.90;;;;;;5070891;28;20463;-61
2021/03/17 11:15:29;;;;;;;2.58;0.98;;;6.50;99.90;;;;;;5071028;28;20509;-60
2021/03/17 11:17:56;;;;;;;3.45;1.27;;;6.40;99.90;;;;;;5073108;28;20242;-60
2021/03/17 11:20:23;;;;;;;4.63;2.10;;;6.40;99.90;;;;;;5071087;28;20204;-61
2021/03/17 11:22:48;;;;;;;1.80;0.22;;;6.20;99.90;;;;;;5069792;28;20459;-60
2021/03/17 11:25:14;;;;;;;2.63;0.93;;;6.10;99.90;;;;;;5070773;28;20310;-60
2021/03/17 11:27:42;;;;;;;1.80;0.20;;;6.10;99.90;;;;;;5069188;28;20178;-60
2021/03/17 11:30:09;;;;;;;2.17;1.03;;;6.20;99.90;;;;;;5082070;28;20260;-61
2021/03/17 11:32:35;;;;;;;1.80;0.20;;;6.20;99.90;;;;;;5083547;28;20496;-61
2021/03/17 11:35:02;;;;;;;7.40;1.87;;;6.10;99.90;;;;;;5084876;28;20224;-61
2021/03/17 11:37:27;;;;;;;1.80;0.20;;;6.20;99.90;;;;;;5085394;28;20964;-60
2021/03/17 11:39:53;;;;;;;1.80;0.20;;;6.20;99.90;;;;;;5066149;28;20193;-59
2021/03/17 11:42:18;;;;;;;1.80;0.20;;;6.20;99.90;;;;;;5062663;28;20186;-59
2021/03/17 11:44:44;;;;;;;1.80;0.20;;;6.30;99.90;;;;;;5068430;28;20240;-60
2021/03/17 11:47:10;;;;;;;1.80;0.20;;;6.30;99.90;;;;;;5068386;28;20184;-62
2021/03/17 11:49:35;;;;;;;1.80;0.20;;;6.40;99.90;;;;;;5069410;28;20264;-60
2021/03/17 11:52:01;;;;;;;2.43;0.90;;;6.40;99.90;;;;;;5072405;28;20192;-60
2021/03/17 11:54:26;;;;;;;1.80;0.20;;;6.50;99.90;;;;;;5065300;28;20263;-59
2021/03/17 11:56:52;;;;;;;2.00;0.40;;;6.60;99.90;;;;;;5062277;28;20185;-62
2021/03/17 11:59:18;;;;;;;1.80;0.20;;;6.70;99.90;;;;;;5073715;28;20223;-65
2021/03/17 12:01:43;;;;;;;1.80;0.20;;;6.80;99.90;;;;;;5073645;28;20977;-60
2021/03/17 12:04:09;;;;;;;2.20;1.33;;;6.80;99.90;;;;;;5077987;28;20204;-61
2021/03/17 12:06:35;;;;;;;1.87;0.20;;;6.80;99.90;;;;;;5089456;28;20203;-64
2021/03/17 12:09:00;;;;;;;1.80;0.20;;;6.90;99.90;;;;;;5088289;28;20240;-62
2021/03/17 12:11:26;;;;;;;1.80;0.20;;;7.00;99.90;;;;;;5088375;28;20180;-61
2021/03/17 12:13:52;;;;;;;1.80;0.20;;;7.10;99.90;;;;;;5081882;28;20683;-60
2021/03/17 12:16:17;;;;;;;2.00;0.40;;;7.00;99.90;;;;;;5074594;28;20212;-60
2021/03/17 12:18:44;;;;;;;1.80;0.20;;;6.90;99.90;;;;;;5085590;28;20793;-61
2021/03/17 12:21:10;;;;;;;1.80;0.20;;;6.80;99.90;;;;;;5071727;28;20216;-60
2021/03/17 12:23:36;;;;;;;2.40;0.50;;;6.80;99.90;;;;;;5075977;28;20527;-60
2021/03/17 12:26:03;;;;;;;1.80;0.30;;;6.70;99.90;;;;;;5063629;28;20177;-61
2021/03/17 12:28:28;;;;;;;1.90;0.30;;;6.70;99.90;;;;;;5083155;28;20439;-61
2021/03/17 12:30:54;;;;;;;1.80;0.20;;;6.60;99.90;;;;;;5086518;28;20450;-61
2021/03/17 12:33:19;;;;;;;1.80;0.20;;;6.60;99.90;;;;;;5078076;28;20216;-60
2021/03/17 12:35:45;;;;;;;1.80;0.20;;;6.70;99.90;;;;;;5074111;28;20173;-60
2021/03/17 12:38:10;;;;;;;1.87;0.27;;;6.70;99.90;;;;;;5078692;28;20648;-61
2021/03/17 12:40:36;;;;;;;1.90;0.27;;;6.80;99.90;;;;;;5069401;28;20214;-60
2021/03/17 12:43:01;;;;;;;1.80;0.20;;;6.80;99.90;;;;;;5078043;28;20184;-60
2021/03/17 12:45:28;;;;;;;2.03;0.47;;;6.90;99.90;;;;;;5072853;28;20172;-61
2021/03/17 12:47:54;;;;;;;1.80;0.20;;;7.00;99.90;;;;;;5067597;28;20214;-60
2021/03/17 12:50:22;;;;;;;1.83;0.30;;;7.00;99.90;;;;;;5073074;28;20446;-61
2021/03/17 12:52:48;;;;;;;1.80;0.20;;;7.00;99.90;;;;;;5088367;28;20426;-61
2021/03/17 12:55:15;;;;;;;1.80;0.20;;;7.10;99.90;;;;;;5076294;28;20461;-61
2021/03/17 12:57:41;;;;;;;1.80;0.20;;;7.10;99.90;;;;;;5074227;28;20459;-61
2021/03/17 13:00:16;;;;;;;1.80;0.20;;;7.10;99.90;;;;;;5065445;28;20785;-61
2021/03/17 13:02:43;;;;;;;1.83;0.30;;;7.20;99.90;;;;;;5066512;28;20314;-61
2021/03/17 13:05:10;;;;;;;4.43;1.47;;;7.20;99.90;;;;;;5080738;28;20454;-61
2021/03/17 13:07:36;;;;;;;1.80;0.20;;;7.20;99.90;;;;;;5084563;28;20777;-61